sensor_id;sensor_type;location;lat;lon;timestamp;temperature;humidity
18575;DHT22;9417;16.484;102.872;2023-12-28T00:01:28;18.60;92.00
18575;DHT22;9417;16.484;102.872;2023-12-28T00:03:37;18.60;92.40
18575;DHT22;9417;16.484;102.872;2023-12-28T00:05:45;18.50;92.90
18575;DHT22;9417;16.484;102.872;2023-12-28T00:07:52;18.50;93.70
18575;DHT22;9417;16.484;102.872;2023-12-28T00:10:03;18.50;94.10
18575;DHT22;9417;16.484;102.872;2023-12-28T00:12:11;18.50;94.00
18575;DHT22;9417;16.484;102.872;2023-12-28T00:14:18;18.50;94.40
18575;DHT22;9417;16.484;102.872;2023-12-28T00:16:25;18.50;94.00
18575;DHT22;9417;16.484;102.872;2023-12-28T00:18:36;18.50;93.80
18575;DHT22;9417;16.484;102.872;2023-12-28T00:20:44;18.50;93.90
18575;DHT22;9417;16.484;102.872;2023-12-28T00:22:50;18.50;94.00
18575;DHT22;9417;16.484;102.872;2023-12-28T00:24:57;18.60;93.90
18575;DHT22;9417;16.484;102.872;2023-12-28T00:27:04;18.60;93.90
18575;DHT22;9417;16.484;102.872;2023-12-28T00:29:10;18.70;93.80
18575;DHT22;9417;16.484;102.872;2023-12-28T00:31:17;18.70;94.00
18575;DHT22;9417;16.484;102.872;2023-12-28T00:33:23;18.80;93.90
18575;DHT22;9417;16.484;102.872;2023-12-28T00:35:32;18.80;93.70
18575;DHT22;9417;16.484;102.872;2023-12-28T00:37:40;18.90;93.50
18575;DHT22;9417;16.484;102.872;2023-12-28T00:39:47;19.00;93.10
18575;DHT22;9417;16.484;102.872;2023-12-28T00:41:55;19.00;92.50
18575;DHT22;9417;16.484;102.872;2023-12-28T00:44:03;19.10;92.20
18575;DHT22;9417;16.484;102.872;2023-12-28T00:46:14;19.20;92.10
18575;DHT22;9417;16.484;102.872;2023-12-28T00:48:20;19.30;91.40
18575;DHT22;9417;16.484;102.872;2023-12-28T00:50:27;19.40;91.30
18575;DHT22;9417;16.484;102.872;2023-12-28T00:52:38;19.50;90.40
18575;DHT22;9417;16.484;102.872;2023-12-28T00:54:45;19.50;90.20
18575;DHT22;9417;16.484;102.872;2023-12-28T00:56:52;19.60;90.50
18575;DHT22;9417;16.484;102.872;2023-12-28T00:59:00;19.60;90.00
18575;DHT22;9417;16.484;102.872;2023-12-28T01:01:08;19.70;89.60
18575;DHT22;9417;16.484;102.872;2023-12-28T01:03:15;19.70;89.60
18575;DHT22;9417;16.484;102.872;2023-12-28T01:05:23;19.80;89.50
18575;DHT22;9417;16.484;102.872;2023-12-28T01:07:31;19.90;89.60
18575;DHT22;9417;16.484;102.872;2023-12-28T01:09:38;19.90;89.30
18575;DHT22;9417;16.484;102.872;2023-12-28T01:11:45;19.90;88.80
18575;DHT22;9417;16.484;102.872;2023-12-28T01:13:53;20.00;88.50
18575;DHT22;9417;16.484;102.872;2023-12-28T01:16:02;20.00;88.10
18575;DHT22;9417;16.484;102.872;2023-12-28T01:18:10;20.10;87.90
18575;DHT22;9417;16.484;102.872;2023-12-28T01:20:18;20.20;88.00
18575;DHT22;9417;16.484;102.872;2023-12-28T01:22:23;20.30;87.70
18575;DHT22;9417;16.484;102.872;2023-12-28T01:24:31;20.40;87.80
18575;DHT22;9417;16.484;102.872;2023-12-28T01:26:40;20.50;87.20
18575;DHT22;9417;16.484;102.872;2023-12-28T01:28:47;20.60;87.20
18575;DHT22;9417;16.484;102.872;2023-12-28T01:30:55;20.60;86.90
18575;DHT22;9417;16.484;102.872;2023-12-28T01:33:02;20.70;87.00
18575;DHT22;9417;16.484;102.872;2023-12-28T01:35:10;20.80;86.60
18575;DHT22;9417;16.484;102.872;2023-12-28T01:37:17;20.90;86.30
18575;DHT22;9417;16.484;102.872;2023-12-28T01:39:24;21.00;85.30
18575;DHT22;9417;16.484;102.872;2023-12-28T01:41:31;21.10;84.80
18575;DHT22;9417;16.484;102.872;2023-12-28T01:43:40;21.10;83.80
18575;DHT22;9417;16.484;102.872;2023-12-28T01:45:47;21.20;84.60
18575;DHT22;9417;16.484;102.872;2023-12-28T01:47:56;21.30;84.70
18575;DHT22;9417;16.484;102.872;2023-12-28T01:50:06;21.40;83.00
18575;DHT22;9417;16.484;102.872;2023-12-28T01:52:14;21.50;82.40
18575;DHT22;9417;16.484;102.872;2023-12-28T01:54:22;21.50;82.00
18575;DHT22;9417;16.484;102.872;2023-12-28T01:56:29;21.60;81.20
18575;DHT22;9417;16.484;102.872;2023-12-28T01:58:40;21.70;81.30
18575;DHT22;9417;16.484;102.872;2023-12-28T02:00:50;21.80;80.70
18575;DHT22;9417;16.484;102.872;2023-12-28T02:02:58;21.90;80.30
18575;DHT22;9417;16.484;102.872;2023-12-28T02:05:06;22.00;80.40
18575;DHT22;9417;16.484;102.872;2023-12-28T02:07:13;22.10;79.90
18575;DHT22;9417;16.484;102.872;2023-12-28T02:09:20;22.10;79.60
18575;DHT22;9417;16.484;102.872;2023-12-28T02:11:28;22.30;78.60
18575;DHT22;9417;16.484;102.872;2023-12-28T02:13:36;22.40;78.90
18575;DHT22;9417;16.484;102.872;2023-12-28T02:15:48;22.50;78.40
18575;DHT22;9417;16.484;102.872;2023-12-28T02:18:00;22.50;77.50
18575;DHT22;9417;16.484;102.872;2023-12-28T02:20:09;22.60;77.40
18575;DHT22;9417;16.484;102.872;2023-12-28T02:22:16;22.70;76.70
18575;DHT22;9417;16.484;102.872;2023-12-28T02:24:24;22.70;77.00
18575;DHT22;9417;16.484;102.872;2023-12-28T02:26:32;22.80;76.70
18575;DHT22;9417;16.484;102.872;2023-12-28T02:28:39;22.90;76.80
18575;DHT22;9417;16.484;102.872;2023-12-28T02:30:46;23.00;76.10
18575;DHT22;9417;16.484;102.872;2023-12-28T02:33:00;23.10;75.00
18575;DHT22;9417;16.484;102.872;2023-12-28T02:35:16;23.20;74.90
18575;DHT22;9417;16.484;102.872;2023-12-28T02:37:25;23.30;74.70
18575;DHT22;9417;16.484;102.872;2023-12-28T02:39:33;23.40;74.70
18575;DHT22;9417;16.484;102.872;2023-12-28T02:41:43;23.40;74.30
18575;DHT22;9417;16.484;102.872;2023-12-28T02:43:50;23.50;74.20
18575;DHT22;9417;16.484;102.872;2023-12-28T02:45:57;23.60;73.90
18575;DHT22;9417;16.484;102.872;2023-12-28T02:48:06;23.70;74.00
18575;DHT22;9417;16.484;102.872;2023-12-28T02:50:13;23.80;73.90
18575;DHT22;9417;16.484;102.872;2023-12-28T02:52:21;23.90;72.60
18575;DHT22;9417;16.484;102.872;2023-12-28T02:54:28;24.00;72.20
18575;DHT22;9417;16.484;102.872;2023-12-28T02:56:36;24.00;71.40
18575;DHT22;9417;16.484;102.872;2023-12-28T02:58:45;24.10;71.50
18575;DHT22;9417;16.484;102.872;2023-12-28T03:00:52;24.20;70.30
18575;DHT22;9417;16.484;102.872;2023-12-28T03:02:59;24.30;71.20
18575;DHT22;9417;16.484;102.872;2023-12-28T03:05:07;24.40;70.90
18575;DHT22;9417;16.484;102.872;2023-12-28T03:07:14;24.50;70.20
18575;DHT22;9417;16.484;102.872;2023-12-28T03:09:22;24.60;70.70
18575;DHT22;9417;16.484;102.872;2023-12-28T03:11:30;24.70;70.60
18575;DHT22;9417;16.484;102.872;2023-12-28T03:13:40;24.70;69.90
18575;DHT22;9417;16.484;102.872;2023-12-28T03:15:49;24.80;70.30
18575;DHT22;9417;16.484;102.872;2023-12-28T03:17:56;25.00;70.60
18575;DHT22;9417;16.484;102.872;2023-12-28T03:20:06;25.10;68.90
18575;DHT22;9417;16.484;102.872;2023-12-28T03:22:13;25.20;69.00
18575;DHT22;9417;16.484;102.872;2023-12-28T03:24:21;25.20;68.20
18575;DHT22;9417;16.484;102.872;2023-12-28T03:26:29;25.30;68.20
18575;DHT22;9417;16.484;102.872;2023-12-28T03:28:36;25.40;67.50
18575;DHT22;9417;16.484;102.872;2023-12-28T03:30:43;25.50;66.90
18575;DHT22;9417;16.484;102.872;2023-12-28T03:32:52;25.60;66.70
18575;DHT22;9417;16.484;102.872;2023-12-28T03:35:01;25.70;66.90
18575;DHT22;9417;16.484;102.872;2023-12-28T03:37:08;25.80;66.20
18575;DHT22;9417;16.484;102.872;2023-12-28T03:39:16;25.80;66.90
18575;DHT22;9417;16.484;102.872;2023-12-28T03:41:23;25.90;66.30
18575;DHT22;9417;16.484;102.872;2023-12-28T03:43:30;26.00;65.80
18575;DHT22;9417;16.484;102.872;2023-12-28T03:45:38;26.10;65.30
18575;DHT22;9417;16.484;102.872;2023-12-28T03:47:45;26.10;65.10
18575;DHT22;9417;16.484;102.872;2023-12-28T03:49:55;26.20;64.90
18575;DHT22;9417;16.484;102.872;2023-12-28T03:52:02;26.30;64.80
18575;DHT22;9417;16.484;102.872;2023-12-28T03:54:09;26.30;64.30
18575;DHT22;9417;16.484;102.872;2023-12-28T03:56:21;26.30;64.60
18575;DHT22;9417;16.484;102.872;2023-12-28T03:58:29;26.40;64.00
18575;DHT22;9417;16.484;102.872;2023-12-28T04:00:37;26.50;63.70
18575;DHT22;9417;16.484;102.872;2023-12-28T04:02:45;26.50;63.30
18575;DHT22;9417;16.484;102.872;2023-12-28T04:04:56;26.60;63.60
18575;DHT22;9417;16.484;102.872;2023-12-28T04:07:03;26.70;64.90
18575;DHT22;9417;16.484;102.872;2023-12-28T04:09:12;26.70;63.60
18575;DHT22;9417;16.484;102.872;2023-12-28T04:11:19;26.80;62.80
18575;DHT22;9417;16.484;102.872;2023-12-28T04:13:25;26.80;62.40
18575;DHT22;9417;16.484;102.872;2023-12-28T04:15:32;26.80;62.10
18575;DHT22;9417;16.484;102.872;2023-12-28T04:17:40;26.90;62.60
18575;DHT22;9417;16.484;102.872;2023-12-28T04:19:47;26.90;61.80
18575;DHT22;9417;16.484;102.872;2023-12-28T04:21:56;27.00;62.40
18575;DHT22;9417;16.484;102.872;2023-12-28T04:24:04;27.10;61.80
18575;DHT22;9417;16.484;102.872;2023-12-28T04:26:11;27.20;61.70
18575;DHT22;9417;16.484;102.872;2023-12-28T04:28:18;27.30;61.70
18575;DHT22;9417;16.484;102.872;2023-12-28T04:30:25;27.50;60.70
18575;DHT22;9417;16.484;102.872;2023-12-28T04:32:33;27.50;60.10
18575;DHT22;9417;16.484;102.872;2023-12-28T04:34:40;27.60;59.60
18575;DHT22;9417;16.484;102.872;2023-12-28T04:36:47;27.70;59.80
18575;DHT22;9417;16.484;102.872;2023-12-28T04:38:59;27.70;59.70
18575;DHT22;9417;16.484;102.872;2023-12-28T04:41:06;27.80;58.80
18575;DHT22;9417;16.484;102.872;2023-12-28T04:43:14;27.90;58.30
18575;DHT22;9417;16.484;102.872;2023-12-28T04:45:21;27.90;59.00
18575;DHT22;9417;16.484;102.872;2023-12-28T04:47:29;28.00;58.20
18575;DHT22;9417;16.484;102.872;2023-12-28T04:49:36;28.10;58.20
18575;DHT22;9417;16.484;102.872;2023-12-28T04:51:44;28.20;57.80
18575;DHT22;9417;16.484;102.872;2023-12-28T04:53:51;28.20;57.60
18575;DHT22;9417;16.484;102.872;2023-12-28T04:56:00;28.20;57.00
18575;DHT22;9417;16.484;102.872;2023-12-28T04:58:08;28.30;57.00
18575;DHT22;9417;16.484;102.872;2023-12-28T05:00:16;28.20;57.50
18575;DHT22;9417;16.484;102.872;2023-12-28T05:02:24;28.30;57.20
18575;DHT22;9417;16.484;102.872;2023-12-28T05:04:31;28.30;57.60
18575;DHT22;9417;16.484;102.872;2023-12-28T05:06:38;28.30;57.20
18575;DHT22;9417;16.484;102.872;2023-12-28T05:08:46;28.30;57.60
18575;DHT22;9417;16.484;102.872;2023-12-28T05:10:53;28.30;56.40
18575;DHT22;9417;16.484;102.872;2023-12-28T05:13:02;28.40;57.40
18575;DHT22;9417;16.484;102.872;2023-12-28T05:15:09;28.50;56.30
18575;DHT22;9417;16.484;102.872;2023-12-28T05:17:16;28.60;55.30
18575;DHT22;9417;16.484;102.872;2023-12-28T05:19:23;28.60;56.10
18575;DHT22;9417;16.484;102.872;2023-12-28T05:21:30;28.60;55.40
18575;DHT22;9417;16.484;102.872;2023-12-28T05:23:37;28.70;55.80
18575;DHT22;9417;16.484;102.872;2023-12-28T05:25:45;28.80;55.60
18575;DHT22;9417;16.484;102.872;2023-12-28T05:27:52;28.90;54.00
18575;DHT22;9417;16.484;102.872;2023-12-28T05:30:02;28.80;54.20
18575;DHT22;9417;16.484;102.872;2023-12-28T05:32:09;28.90;55.50
18575;DHT22;9417;16.484;102.872;2023-12-28T05:34:17;28.90;54.50
18575;DHT22;9417;16.484;102.872;2023-12-28T05:36:24;29.00;53.90
18575;DHT22;9417;16.484;102.872;2023-12-28T05:38:31;29.10;53.50
18575;DHT22;9417;16.484;102.872;2023-12-28T05:40:38;29.10;54.30
18575;DHT22;9417;16.484;102.872;2023-12-28T05:42:45;29.10;54.40
18575;DHT22;9417;16.484;102.872;2023-12-28T05:44:52;29.10;54.20
18575;DHT22;9417;16.484;102.872;2023-12-28T05:47:02;29.20;53.30
18575;DHT22;9417;16.484;102.872;2023-12-28T05:49:08;29.20;53.40
18575;DHT22;9417;16.484;102.872;2023-12-28T05:51:16;29.30;53.50
18575;DHT22;9417;16.484;102.872;2023-12-28T05:53:24;29.40;54.00
18575;DHT22;9417;16.484;102.872;2023-12-28T05:55:32;29.40;53.20
18575;DHT22;9417;16.484;102.872;2023-12-28T05:57:39;29.50;53.40
18575;DHT22;9417;16.484;102.872;2023-12-28T05:59:46;29.40;52.90
18575;DHT22;9417;16.484;102.872;2023-12-28T06:01:54;29.40;52.40
18575;DHT22;9417;16.484;102.872;2023-12-28T06:04:02;29.50;53.10
18575;DHT22;9417;16.484;102.872;2023-12-28T06:06:10;29.50;52.70
18575;DHT22;9417;16.484;102.872;2023-12-28T06:08:17;29.40;51.90
18575;DHT22;9417;16.484;102.872;2023-12-28T06:10:27;29.50;52.00
18575;DHT22;9417;16.484;102.872;2023-12-28T06:12:34;29.50;52.20
18575;DHT22;9417;16.484;102.872;2023-12-28T06:14:42;29.50;52.40
18575;DHT22;9417;16.484;102.872;2023-12-28T06:16:49;29.60;52.40
18575;DHT22;9417;16.484;102.872;2023-12-28T06:18:56;29.70;52.10
18575;DHT22;9417;16.484;102.872;2023-12-28T06:21:05;29.70;53.30
18575;DHT22;9417;16.484;102.872;2023-12-28T06:23:13;29.70;52.80
18575;DHT22;9417;16.484;102.872;2023-12-28T06:25:20;29.80;53.30
18575;DHT22;9417;16.484;102.872;2023-12-28T06:27:27;29.80;53.10
18575;DHT22;9417;16.484;102.872;2023-12-28T06:29:34;29.80;51.70
18575;DHT22;9417;16.484;102.872;2023-12-28T06:31:41;29.80;51.60
18575;DHT22;9417;16.484;102.872;2023-12-28T06:33:48;29.70;51.50
18575;DHT22;9417;16.484;102.872;2023-12-28T06:35:55;29.70;53.00
18575;DHT22;9417;16.484;102.872;2023-12-28T06:38:04;29.60;52.10
18575;DHT22;9417;16.484;102.872;2023-12-28T06:40:12;29.60;53.20
18575;DHT22;9417;16.484;102.872;2023-12-28T06:42:19;29.60;52.30
18575;DHT22;9417;16.484;102.872;2023-12-28T06:44:27;29.60;52.60
18575;DHT22;9417;16.484;102.872;2023-12-28T06:46:34;29.60;53.60
18575;DHT22;9417;16.484;102.872;2023-12-28T06:48:41;29.70;52.70
18575;DHT22;9417;16.484;102.872;2023-12-28T06:50:49;29.70;51.80
18575;DHT22;9417;16.484;102.872;2023-12-28T06:52:56;29.70;52.40
18575;DHT22;9417;16.484;102.872;2023-12-28T06:55:06;29.70;51.90
18575;DHT22;9417;16.484;102.872;2023-12-28T06:57:13;29.80;52.00
18575;DHT22;9417;16.484;102.872;2023-12-28T06:59:20;29.80;51.30
18575;DHT22;9417;16.484;102.872;2023-12-28T07:01:27;29.80;51.30
18575;DHT22;9417;16.484;102.872;2023-12-28T07:03:34;29.80;51.90
18575;DHT22;9417;16.484;102.872;2023-12-28T07:05:42;29.90;51.70
18575;DHT22;9417;16.484;102.872;2023-12-28T07:07:48;29.80;52.20
18575;DHT22;9417;16.484;102.872;2023-12-28T07:09:55;29.70;51.20
18575;DHT22;9417;16.484;102.872;2023-12-28T07:12:05;29.70;50.40
18575;DHT22;9417;16.484;102.872;2023-12-28T07:14:12;29.70;50.60
18575;DHT22;9417;16.484;102.872;2023-12-28T07:16:19;29.70;50.90
18575;DHT22;9417;16.484;102.872;2023-12-28T07:18:27;29.80;50.90
18575;DHT22;9417;16.484;102.872;2023-12-28T07:20:34;29.80;50.20
18575;DHT22;9417;16.484;102.872;2023-12-28T07:22:40;29.70;49.80
18575;DHT22;9417;16.484;102.872;2023-12-28T07:24:47;29.60;49.60
18575;DHT22;9417;16.484;102.872;2023-12-28T07:26:55;29.50;51.30
18575;DHT22;9417;16.484;102.872;2023-12-28T07:29:03;29.60;49.70
18575;DHT22;9417;16.484;102.872;2023-12-28T07:31:11;29.60;48.70
18575;DHT22;9417;16.484;102.872;2023-12-28T07:33:18;29.60;49.10
18575;DHT22;9417;16.484;102.872;2023-12-28T07:35:25;29.60;48.00
18575;DHT22;9417;16.484;102.872;2023-12-28T07:37:33;29.60;48.50
18575;DHT22;9417;16.484;102.872;2023-12-28T07:39:40;29.70;48.50
18575;DHT22;9417;16.484;102.872;2023-12-28T07:41:47;29.80;48.10
18575;DHT22;9417;16.484;102.872;2023-12-28T07:43:58;29.80;47.90
18575;DHT22;9417;16.484;102.872;2023-12-28T07:46:07;29.80;48.40
18575;DHT22;9417;16.484;102.872;2023-12-28T07:48:14;29.80;48.10
18575;DHT22;9417;16.484;102.872;2023-12-28T07:50:21;29.80;46.60
18575;DHT22;9417;16.484;102.872;2023-12-28T07:52:28;29.70;48.40
18575;DHT22;9417;16.484;102.872;2023-12-28T07:54:35;29.70;47.00
18575;DHT22;9417;16.484;102.872;2023-12-28T07:56:43;29.70;47.00
18575;DHT22;9417;16.484;102.872;2023-12-28T07:58:51;29.70;46.10
18575;DHT22;9417;16.484;102.872;2023-12-28T08:00:56;29.70;45.90
18575;DHT22;9417;16.484;102.872;2023-12-28T08:03:06;29.70;46.90
18575;DHT22;9417;16.484;102.872;2023-12-28T08:05:13;29.70;45.90
18575;DHT22;9417;16.484;102.872;2023-12-28T08:07:20;29.70;47.00
18575;DHT22;9417;16.484;102.872;2023-12-28T08:09:28;29.70;47.10
18575;DHT22;9417;16.484;102.872;2023-12-28T08:11:35;29.70;48.50
18575;DHT22;9417;16.484;102.872;2023-12-28T08:13:42;29.70;47.20
18575;DHT22;9417;16.484;102.872;2023-12-28T08:15:49;29.70;46.00
18575;DHT22;9417;16.484;102.872;2023-12-28T08:17:57;29.80;45.50
18575;DHT22;9417;16.484;102.872;2023-12-28T08:20:08;29.80;44.90
18575;DHT22;9417;16.484;102.872;2023-12-28T08:22:15;29.80;45.90
18575;DHT22;9417;16.484;102.872;2023-12-28T08:24:23;29.80;46.30
18575;DHT22;9417;16.484;102.872;2023-12-28T08:26:30;29.80;45.50
18575;DHT22;9417;16.484;102.872;2023-12-28T08:28:38;29.80;45.90
18575;DHT22;9417;16.484;102.872;2023-12-28T08:30:45;29.90;45.70
18575;DHT22;9417;16.484;102.872;2023-12-28T08:32:53;29.80;45.00
18575;DHT22;9417;16.484;102.872;2023-12-28T08:35:00;29.80;46.00
18575;DHT22;9417;16.484;102.872;2023-12-28T08:37:10;29.80;46.20
18575;DHT22;9417;16.484;102.872;2023-12-28T08:39:17;29.80;44.90
18575;DHT22;9417;16.484;102.872;2023-12-28T08:41:24;29.80;45.60
18575;DHT22;9417;16.484;102.872;2023-12-28T08:43:32;29.80;46.40
18575;DHT22;9417;16.484;102.872;2023-12-28T08:45:39;29.70;46.50
18575;DHT22;9417;16.484;102.872;2023-12-28T08:47:46;29.70;45.70
18575;DHT22;9417;16.484;102.872;2023-12-28T08:49:53;29.70;45.10
18575;DHT22;9417;16.484;102.872;2023-12-28T08:52:00;29.70;46.20
18575;DHT22;9417;16.484;102.872;2023-12-28T08:54:09;29.70;45.70
18575;DHT22;9417;16.484;102.872;2023-12-28T08:56:20;29.70;46.10
18575;DHT22;9417;16.484;102.872;2023-12-28T08:58:27;29.70;46.10
18575;DHT22;9417;16.484;102.872;2023-12-28T09:00:35;29.70;46.20
18575;DHT22;9417;16.484;102.872;2023-12-28T09:02:42;29.70;46.10
18575;DHT22;9417;16.484;102.872;2023-12-28T09:04:50;29.60;46.10
18575;DHT22;9417;16.484;102.872;2023-12-28T09:06:57;29.70;45.90
18575;DHT22;9417;16.484;102.872;2023-12-28T09:09:05;29.70;46.80
18575;DHT22;9417;16.484;102.872;2023-12-28T09:11:15;29.70;47.00
18575;DHT22;9417;16.484;102.872;2023-12-28T09:13:23;29.70;46.30
18575;DHT22;9417;16.484;102.872;2023-12-28T09:15:29;29.70;47.10
18575;DHT22;9417;16.484;102.872;2023-12-28T09:17:36;29.70;47.40
18575;DHT22;9417;16.484;102.872;2023-12-28T09:19:43;29.70;46.60
18575;DHT22;9417;16.484;102.872;2023-12-28T09:21:49;29.70;47.10
18575;DHT22;9417;16.484;102.872;2023-12-28T09:23:56;29.70;46.70
18575;DHT22;9417;16.484;102.872;2023-12-28T09:26:04;29.70;47.50
18575;DHT22;9417;16.484;102.872;2023-12-28T09:28:13;29.60;46.70
18575;DHT22;9417;16.484;102.872;2023-12-28T09:30:21;29.60;46.90
18575;DHT22;9417;16.484;102.872;2023-12-28T09:32:28;29.60;46.10
18575;DHT22;9417;16.484;102.872;2023-12-28T09:34:35;29.60;45.90
18575;DHT22;9417;16.484;102.872;2023-12-28T09:36:43;29.60;46.20
18575;DHT22;9417;16.484;102.872;2023-12-28T09:38:50;29.60;46.10
18575;DHT22;9417;16.484;102.872;2023-12-28T09:41:01;29.60;46.60
18575;DHT22;9417;16.484;102.872;2023-12-28T09:43:22;29.60;47.90
18575;DHT22;9417;16.484;102.872;2023-12-28T09:45:30;29.60;46.70
18575;DHT22;9417;16.484;102.872;2023-12-28T09:47:38;29.60;49.20
18575;DHT22;9417;16.484;102.872;2023-12-28T09:49:46;29.50;46.90
18575;DHT22;9417;16.484;102.872;2023-12-28T09:51:54;29.50;47.40
18575;DHT22;9417;16.484;102.872;2023-12-28T09:54:02;29.50;48.20
18575;DHT22;9417;16.484;102.872;2023-12-28T09:56:10;29.50;48.10
18575;DHT22;9417;16.484;102.872;2023-12-28T09:58:21;29.50;47.30
18575;DHT22;9417;16.484;102.872;2023-12-28T10:00:27;29.40;48.60
18575;DHT22;9417;16.484;102.872;2023-12-28T10:02:35;29.40;48.10
18575;DHT22;9417;16.484;102.872;2023-12-28T10:04:43;29.50;48.60
18575;DHT22;9417;16.484;102.872;2023-12-28T10:06:50;29.40;48.50
18575;DHT22;9417;16.484;102.872;2023-12-28T10:08:57;29.40;49.30
18575;DHT22;9417;16.484;102.872;2023-12-28T10:11:05;29.30;49.20
18575;DHT22;9417;16.484;102.872;2023-12-28T10:13:13;29.30;49.20
18575;DHT22;9417;16.484;102.872;2023-12-28T10:15:21;29.20;49.40
18575;DHT22;9417;16.484;102.872;2023-12-28T10:17:31;29.20;49.90
18575;DHT22;9417;16.484;102.872;2023-12-28T10:19:38;29.20;49.90
18575;DHT22;9417;16.484;102.872;2023-12-28T10:21:47;29.20;49.50
18575;DHT22;9417;16.484;102.872;2023-12-28T10:23:54;29.10;49.60
18575;DHT22;9417;16.484;102.872;2023-12-28T10:26:03;29.10;49.80
18575;DHT22;9417;16.484;102.872;2023-12-28T10:28:12;29.10;50.70
18575;DHT22;9417;16.484;102.872;2023-12-28T10:30:22;29.00;50.60
18575;DHT22;9417;16.484;102.872;2023-12-28T10:32:30;29.00;49.90
18575;DHT22;9417;16.484;102.872;2023-12-28T10:34:38;28.90;50.40
18575;DHT22;9417;16.484;102.872;2023-12-28T10:36:46;28.90;50.70
18575;DHT22;9417;16.484;102.872;2023-12-28T10:38:55;28.90;51.60
18575;DHT22;9417;16.484;102.872;2023-12-28T10:41:06;28.80;52.40
18575;DHT22;9417;16.484;102.872;2023-12-28T10:43:14;28.80;53.00
18575;DHT22;9417;16.484;102.872;2023-12-28T10:45:25;28.70;53.90
18575;DHT22;9417;16.484;102.872;2023-12-28T10:47:33;28.60;54.20
18575;DHT22;9417;16.484;102.872;2023-12-28T10:49:40;28.50;53.70
18575;DHT22;9417;16.484;102.872;2023-12-28T10:51:52;28.40;53.70
18575;DHT22;9417;16.484;102.872;2023-12-28T10:54:06;28.30;53.50
18575;DHT22;9417;16.484;102.872;2023-12-28T10:56:26;28.30;53.30
18575;DHT22;9417;16.484;102.872;2023-12-28T10:58:40;28.30;53.40
18575;DHT22;9417;16.484;102.872;2023-12-28T11:00:59;28.20;53.50
18575;DHT22;9417;16.484;102.872;2023-12-28T11:03:11;28.20;53.80
18575;DHT22;9417;16.484;102.872;2023-12-28T11:05:20;28.10;55.60
18575;DHT22;9417;16.484;102.872;2023-12-28T11:07:28;27.90;55.90
18575;DHT22;9417;16.484;102.872;2023-12-28T11:09:38;27.90;56.30
18575;DHT22;9417;16.484;102.872;2023-12-28T11:11:50;27.80;56.90
18575;DHT22;9417;16.484;102.872;2023-12-28T11:14:00;27.80;57.20
18575;DHT22;9417;16.484;102.872;2023-12-28T11:16:09;27.70;57.60
18575;DHT22;9417;16.484;102.872;2023-12-28T11:18:18;27.70;58.50
18575;DHT22;9417;16.484;102.872;2023-12-28T11:20:27;27.70;59.50
18575;DHT22;9417;16.484;102.872;2023-12-28T11:22:35;27.60;59.80
18575;DHT22;9417;16.484;102.872;2023-12-28T11:24:42;27.50;60.00
18575;DHT22;9417;16.484;102.872;2023-12-28T11:26:53;27.50;59.20
18575;DHT22;9417;16.484;102.872;2023-12-28T11:29:04;27.50;60.80
18575;DHT22;9417;16.484;102.872;2023-12-28T11:31:14;27.40;61.10
18575;DHT22;9417;16.484;102.872;2023-12-28T11:33:21;27.40;61.40
18575;DHT22;9417;16.484;102.872;2023-12-28T11:35:34;27.30;61.10
18575;DHT22;9417;16.484;102.872;2023-12-28T11:37:46;27.30;60.80
18575;DHT22;9417;16.484;102.872;2023-12-28T11:39:55;27.20;62.20
18575;DHT22;9417;16.484;102.872;2023-12-28T11:42:05;27.20;62.40
18575;DHT22;9417;16.484;102.872;2023-12-28T11:44:13;27.10;62.20
18575;DHT22;9417;16.484;102.872;2023-12-28T11:46:21;27.10;63.30
18575;DHT22;9417;16.484;102.872;2023-12-28T11:48:29;27.00;64.10
18575;DHT22;9417;16.484;102.872;2023-12-28T11:50:36;27.00;64.40
18575;DHT22;9417;16.484;102.872;2023-12-28T11:52:50;26.90;64.80
18575;DHT22;9417;16.484;102.872;2023-12-28T11:54:57;26.90;65.10
18575;DHT22;9417;16.484;102.872;2023-12-28T11:57:05;26.80;65.10
18575;DHT22;9417;16.484;102.872;2023-12-28T11:59:12;26.70;65.70
18575;DHT22;9417;16.484;102.872;2023-12-28T12:01:22;26.70;66.30
18575;DHT22;9417;16.484;102.872;2023-12-28T12:03:29;26.60;66.40
18575;DHT22;9417;16.484;102.872;2023-12-28T12:05:36;26.60;66.40
18575;DHT22;9417;16.484;102.872;2023-12-28T12:07:42;26.40;66.50
18575;DHT22;9417;16.484;102.872;2023-12-28T12:09:54;26.40;66.90
18575;DHT22;9417;16.484;102.872;2023-12-28T12:12:02;26.40;67.10
18575;DHT22;9417;16.484;102.872;2023-12-28T12:14:10;26.40;66.90
18575;DHT22;9417;16.484;102.872;2023-12-28T12:16:18;26.40;66.40
18575;DHT22;9417;16.484;102.872;2023-12-28T12:18:27;26.40;65.80
18575;DHT22;9417;16.484;102.872;2023-12-28T12:20:34;26.40;66.80
18575;DHT22;9417;16.484;102.872;2023-12-28T12:22:44;26.30;67.10
18575;DHT22;9417;16.484;102.872;2023-12-28T12:24:51;26.30;67.80
18575;DHT22;9417;16.484;102.872;2023-12-28T12:27:00;26.10;67.50
18575;DHT22;9417;16.484;102.872;2023-12-28T12:29:08;26.00;66.90
18575;DHT22;9417;16.484;102.872;2023-12-28T12:31:15;25.90;67.50
18575;DHT22;9417;16.484;102.872;2023-12-28T12:33:24;25.90;68.30
18575;DHT22;9417;16.484;102.872;2023-12-28T12:35:34;25.90;68.60
18575;DHT22;9417;16.484;102.872;2023-12-28T12:37:41;25.80;68.40
18575;DHT22;9417;16.484;102.872;2023-12-28T12:39:49;25.70;68.70
18575;DHT22;9417;16.484;102.872;2023-12-28T12:41:57;25.60;68.90
18575;DHT22;9417;16.484;102.872;2023-12-28T12:44:04;25.50;69.30
18575;DHT22;9417;16.484;102.872;2023-12-28T12:46:11;25.50;69.90
18575;DHT22;9417;16.484;102.872;2023-12-28T12:48:17;25.50;70.60
18575;DHT22;9417;16.484;102.872;2023-12-28T12:50:26;25.40;70.90
18575;DHT22;9417;16.484;102.872;2023-12-28T12:52:35;25.40;71.20
18575;DHT22;9417;16.484;102.872;2023-12-28T12:54:42;25.40;71.40
18575;DHT22;9417;16.484;102.872;2023-12-28T12:56:51;25.30;72.00
18575;DHT22;9417;16.484;102.872;2023-12-28T12:58:58;25.30;72.10
18575;DHT22;9417;16.484;102.872;2023-12-28T13:01:05;25.20;72.20
18575;DHT22;9417;16.484;102.872;2023-12-28T13:03:16;25.10;72.80
18575;DHT22;9417;16.484;102.872;2023-12-28T13:05:25;25.10;73.10
18575;DHT22;9417;16.484;102.872;2023-12-28T13:07:34;25.10;73.10
18575;DHT22;9417;16.484;102.872;2023-12-28T13:09:41;25.00;73.20
18575;DHT22;9417;16.484;102.872;2023-12-28T13:11:48;25.00;73.50
18575;DHT22;9417;16.484;102.872;2023-12-28T13:13:56;24.90;73.10
18575;DHT22;9417;16.484;102.872;2023-12-28T13:16:03;24.90;74.00